sensor_id;sensor_type;location;lat;lon;timestamp;P1;durP1;ratioP1;P2;durP2;ratioP2
37855;SDS011;23694;43.274;26.924;2023-02-01T00:02:03;18.27;;;10.73;;
37855;SDS011;23694;43.274;26.924;2023-02-01T00:04:29;20.73;;;11.47;;
37855;SDS011;23694;43.274;26.924;2023-02-01T00:06:55;25.50;;;12.27;;
37855;SDS011;23694;43.274;26.924;2023-02-01T00:09:21;19.77;;;11.60;;
37855;SDS011;23694;43.274;26.924;2023-02-01T00:11:47;23.87;;;12.63;;
37855;SDS011;23694;43.274;26.924;2023-02-01T00:14:13;26.10;;;12.87;;
37855;SDS011;23694;43.274;26.924;2023-02-01T00:16:39;22.20;;;12.53;;
37855;SDS011;23694;43.274;26.924;2023-02-01T00:19:13;26.83;;;13.33;;
37855;SDS011;23694;43.274;26.924;2023-02-01T00:21:40;24.27;;;12.60;;
37855;SDS011;23694;43.274;26.924;2023-02-01T00:24:06;25.33;;;13.73;;
37855;SDS011;23694;43.274;26.924;2023-02-01T00:26:37;23.00;;;12.87;;
37855;SDS011;23694;43.274;26.924;2023-02-01T00:29:06;24.40;;;14.17;;
37855;SDS011;23694;43.274;26.924;2023-02-01T00:31:43;26.47;;;14.23;;
37855;SDS011;23694;43.274;26.924;2023-02-01T00:34:14;28.53;;;14.43;;
37855;SDS011;23694;43.274;26.924;2023-02-01T00:36:42;25.70;;;13.05;;
37855;SDS011;23694;43.274;26.924;2023-02-01T00:39:09;24.33;;;13.43;;
37855;SDS011;23694;43.274;26.924;2023-02-01T00:41:36;25.53;;;13.57;;
37855;SDS011;23694;43.274;26.924;2023-02-01T00:44:02;23.07;;;13.33;;
37855;SDS011;23694;43.274;26.924;2023-02-01T00:46:29;21.50;;;12.33;;
37855;SDS011;23694;43.274;26.924;2023-02-01T00:48:55;23.13;;;12.03;;
37855;SDS011;23694;43.274;26.924;2023-02-01T00:51:22;22.60;;;12.80;;
37855;SDS011;23694;43.274;26.924;2023-02-01T00:53:52;22.33;;;12.10;;
37855;SDS011;23694;43.274;26.924;2023-02-01T00:56:19;19.20;;;11.63;;
37855;SDS011;23694;43.274;26.924;2023-02-01T00:58:45;20.50;;;12.20;;
37855;SDS011;23694;43.274;26.924;2023-02-01T01:01:16;19.23;;;11.73;;
37855;SDS011;23694;43.274;26.924;2023-02-01T01:03:46;23.03;;;12.63;;
37855;SDS011;23694;43.274;26.924;2023-02-01T01:06:17;19.67;;;11.75;;
37855;SDS011;23694;43.274;26.924;2023-02-01T01:08:46;18.63;;;10.67;;
37855;SDS011;23694;43.274;26.924;2023-02-01T01:11:14;19.93;;;11.97;;
37855;SDS011;23694;43.274;26.924;2023-02-01T01:13:46;16.73;;;10.57;;
37855;SDS011;23694;43.274;26.924;2023-02-01T01:16:13;23.43;;;11.20;;
37855;SDS011;23694;43.274;26.924;2023-02-01T01:18:39;20.07;;;10.53;;
37855;SDS011;23694;43.274;26.924;2023-02-01T01:21:06;17.87;;;10.10;;
37855;SDS011;23694;43.274;26.924;2023-02-01T01:23:33;16.83;;;10.10;;
37855;SDS011;23694;43.274;26.924;2023-02-01T01:26:00;16.93;;;10.70;;
37855;SDS011;23694;43.274;26.924;2023-02-01T01:28:29;16.63;;;9.60;;
37855;SDS011;23694;43.274;26.924;2023-02-01T01:30:55;16.77;;;9.53;;
37855;SDS011;23694;43.274;26.924;2023-02-01T01:33:21;17.43;;;9.10;;
37855;SDS011;23694;43.274;26.924;2023-02-01T01:35:48;15.97;;;9.63;;
37855;SDS011;23694;43.274;26.924;2023-02-01T01:38:14;15.53;;;9.63;;
37855;SDS011;23694;43.274;26.924;2023-02-01T01:40:40;20.67;;;10.63;;
37855;SDS011;23694;43.274;26.924;2023-02-01T01:43:14;17.83;;;10.53;;
37855;SDS011;23694;43.274;26.924;2023-02-01T01:45:41;17.63;;;9.83;;
37855;SDS011;23694;43.274;26.924;2023-02-01T01:48:09;18.77;;;10.20;;
37855;SDS011;23694;43.274;26.924;2023-02-01T01:50:47;17.37;;;10.10;;
37855;SDS011;23694;43.274;26.924;2023-02-01T01:53:22;20.13;;;9.70;;
37855;SDS011;23694;43.274;26.924;2023-02-01T01:55:52;15.20;;;8.90;;
37855;SDS011;23694;43.274;26.924;2023-02-01T01:58:21;14.40;;;9.20;;
37855;SDS011;23694;43.274;26.924;2023-02-01T02:00:51;15.00;;;9.67;;
37855;SDS011;23694;43.274;26.924;2023-02-01T02:03:23;15.07;;;9.53;;
37855;SDS011;23694;43.274;26.924;2023-02-01T02:05:53;15.97;;;9.40;;
37855;SDS011;23694;43.274;26.924;2023-02-01T02:08:23;15.03;;;8.97;;
37855;SDS011;23694;43.274;26.924;2023-02-01T02:10:52;15.30;;;9.97;;
37855;SDS011;23694;43.274;26.924;2023-02-01T02:18:46;18.33;;;9.53;;
37855;SDS011;23694;43.274;26.924;2023-02-01T02:27:33;17.20;;;9.43;;
37855;SDS011;23694;43.274;26.924;2023-02-01T02:30:29;15.80;;;9.57;;
37855;SDS011;23694;43.274;26.924;2023-02-01T02:36:00;15.70;;;8.53;;
37855;SDS011;23694;43.274;26.924;2023-02-01T02:50:24;16.03;;;9.43;;
37855;SDS011;23694;43.274;26.924;2023-02-01T02:53:15;13.47;;;8.80;;
37855;SDS011;23694;43.274;26.924;2023-02-01T02:56:07;14.80;;;9.30;;
37855;SDS011;23694;43.274;26.924;2023-02-01T02:58:54;16.30;;;9.07;;
37855;SDS011;23694;43.274;26.924;2023-02-01T03:01:39;16.57;;;9.07;;
37855;SDS011;23694;43.274;26.924;2023-02-01T03:04:25;15.70;;;9.60;;
37855;SDS011;23694;43.274;26.924;2023-02-01T03:06:51;17.73;;;9.80;;
37855;SDS011;23694;43.274;26.924;2023-02-01T03:12:01;17.43;;;9.90;;
37855;SDS011;23694;43.274;26.924;2023-02-01T03:14:54;14.27;;;8.50;;
37855;SDS011;23694;43.274;26.924;2023-02-01T03:17:25;19.07;;;9.53;;
37855;SDS011;23694;43.274;26.924;2023-02-01T03:19:57;18.73;;;9.77;;
37855;SDS011;23694;43.274;26.924;2023-02-01T03:22:28;15.93;;;10.20;;
37855;SDS011;23694;43.274;26.924;2023-02-01T03:25:05;16.90;;;9.93;;
37855;SDS011;23694;43.274;26.924;2023-02-01T03:27:37;17.20;;;9.97;;
37855;SDS011;23694;43.274;26.924;2023-02-01T03:32:48;17.10;;;10.03;;
37855;SDS011;23694;43.274;26.924;2023-02-01T03:41:17;17.63;;;10.40;;
37855;SDS011;23694;43.274;26.924;2023-02-01T03:43:57;13.97;;;9.77;;
37855;SDS011;23694;43.274;26.924;2023-02-01T03:46:47;17.73;;;10.00;;
37855;SDS011;23694;43.274;26.924;2023-02-01T03:49:22;19.37;;;10.17;;
37855;SDS011;23694;43.274;26.924;2023-02-01T03:51:54;16.43;;;9.90;;
37855;SDS011;23694;43.274;26.924;2023-02-01T03:54:23;18.73;;;10.90;;
37855;SDS011;23694;43.274;26.924;2023-02-01T03:56:51;16.40;;;10.20;;
37855;SDS011;23694;43.274;26.924;2023-02-01T03:59:19;19.83;;;11.27;;
37855;SDS011;23694;43.274;26.924;2023-02-01T04:01:45;18.97;;;10.13;;
37855;SDS011;23694;43.274;26.924;2023-02-01T04:04:11;17.27;;;9.93;;
37855;SDS011;23694;43.274;26.924;2023-02-01T04:06:46;19.83;;;11.77;;
37855;SDS011;23694;43.274;26.924;2023-02-01T04:09:13;19.50;;;11.13;;
37855;SDS011;23694;43.274;26.924;2023-02-01T04:11:39;20.73;;;11.43;;
37855;SDS011;23694;43.274;26.924;2023-02-01T04:14:05;43.90;;;23.43;;
37855;SDS011;23694;43.274;26.924;2023-02-01T04:16:31;29.53;;;15.50;;
37855;SDS011;23694;43.274;26.924;2023-02-01T04:18:58;26.50;;;14.23;;
37855;SDS011;23694;43.274;26.924;2023-02-01T04:21:25;19.93;;;11.30;;
37855;SDS011;23694;43.274;26.924;2023-02-01T04:23:51;23.63;;;13.13;;
37855;SDS011;23694;43.274;26.924;2023-02-01T04:26:18;20.20;;;12.87;;
37855;SDS011;23694;43.274;26.924;2023-02-01T04:28:45;20.63;;;12.50;;
37855;SDS011;23694;43.274;26.924;2023-02-01T04:31:14;23.63;;;13.50;;
37855;SDS011;23694;43.274;26.924;2023-02-01T04:33:41;21.33;;;12.53;;
37855;SDS011;23694;43.274;26.924;2023-02-01T04:36:07;18.70;;;11.83;;
37855;SDS011;23694;43.274;26.924;2023-02-01T04:38:34;20.03;;;11.97;;
37855;SDS011;23694;43.274;26.924;2023-02-01T04:41:00;17.93;;;11.20;;
37855;SDS011;23694;43.274;26.924;2023-02-01T04:43:26;22.13;;;11.97;;
37855;SDS011;23694;43.274;26.924;2023-02-01T04:45:52;19.77;;;11.40;;
37855;SDS011;23694;43.274;26.924;2023-02-01T04:48:19;19.73;;;10.43;;
37855;SDS011;23694;43.274;26.924;2023-02-01T04:50:46;25.23;;;13.50;;
37855;SDS011;23694;43.274;26.924;2023-02-01T04:53:14;24.50;;;13.23;;
37855;SDS011;23694;43.274;26.924;2023-02-01T04:55:41;22.20;;;13.10;;
37855;SDS011;23694;43.274;26.924;2023-02-01T04:58:08;22.40;;;12.30;;
37855;SDS011;23694;43.274;26.924;2023-02-01T05:00:35;20.97;;;12.30;;
37855;SDS011;23694;43.274;26.924;2023-02-01T05:03:02;24.37;;;14.73;;
37855;SDS011;23694;43.274;26.924;2023-02-01T05:05:28;21.07;;;13.00;;
37855;SDS011;23694;43.274;26.924;2023-02-01T05:07:55;21.53;;;13.53;;
37855;SDS011;23694;43.274;26.924;2023-02-01T05:10:21;29.33;;;17.17;;
37855;SDS011;23694;43.274;26.924;2023-02-01T05:12:47;24.23;;;13.60;;
37855;SDS011;23694;43.274;26.924;2023-02-01T05:15:32;20.20;;;11.67;;
37855;SDS011;23694;43.274;26.924;2023-02-01T05:17:58;18.73;;;11.43;;
37855;SDS011;23694;43.274;26.924;2023-02-01T05:20:24;19.73;;;11.07;;
37855;SDS011;23694;43.274;26.924;2023-02-01T05:22:50;21.83;;;12.57;;
37855;SDS011;23694;43.274;26.924;2023-02-01T05:25:16;23.80;;;14.93;;
37855;SDS011;23694;43.274;26.924;2023-02-01T05:27:42;21.40;;;11.93;;
37855;SDS011;23694;43.274;26.924;2023-02-01T05:30:09;23.30;;;13.87;;
37855;SDS011;23694;43.274;26.924;2023-02-01T05:32:35;22.27;;;12.37;;
37855;SDS011;23694;43.274;26.924;2023-02-01T05:35:01;23.30;;;15.73;;
37855;SDS011;23694;43.274;26.924;2023-02-01T05:37:27;44.30;;;28.93;;
37855;SDS011;23694;43.274;26.924;2023-02-01T05:39:54;18.83;;;10.97;;
37855;SDS011;23694;43.274;26.924;2023-02-01T05:42:20;17.97;;;10.27;;
37855;SDS011;23694;43.274;26.924;2023-02-01T05:44:46;16.67;;;9.80;;
37855;SDS011;23694;43.274;26.924;2023-02-01T05:47:12;28.50;;;16.43;;
37855;SDS011;23694;43.274;26.924;2023-02-01T05:49:38;16.80;;;10.37;;
37855;SDS011;23694;43.274;26.924;2023-02-01T05:52:04;19.83;;;9.67;;
37855;SDS011;23694;43.274;26.924;2023-02-01T05:54:30;17.23;;;9.87;;
37855;SDS011;23694;43.274;26.924;2023-02-01T05:56:56;17.00;;;8.93;;
37855;SDS011;23694;43.274;26.924;2023-02-01T05:59:22;26.60;;;15.03;;
37855;SDS011;23694;43.274;26.924;2023-02-01T06:01:49;16.60;;;8.50;;
37855;SDS011;23694;43.274;26.924;2023-02-01T06:04:15;9.67;;;7.30;;
37855;SDS011;23694;43.274;26.924;2023-02-01T06:06:41;14.27;;;8.70;;
37855;SDS011;23694;43.274;26.924;2023-02-01T06:09:07;14.33;;;8.00;;
37855;SDS011;23694;43.274;26.924;2023-02-01T06:11:33;11.97;;;8.10;;
37855;SDS011;23694;43.274;26.924;2023-02-01T06:13:59;12.60;;;7.73;;
37855;SDS011;23694;43.274;26.924;2023-02-01T06:16:25;12.27;;;7.57;;
37855;SDS011;23694;43.274;26.924;2023-02-01T06:18:52;12.77;;;7.63;;
37855;SDS011;23694;43.274;26.924;2023-02-01T06:21:19;10.50;;;6.67;;
37855;SDS011;23694;43.274;26.924;2023-02-01T06:23:52;11.00;;;6.80;;
37855;SDS011;23694;43.274;26.924;2023-02-01T06:26:20;9.57;;;6.83;;
37855;SDS011;23694;43.274;26.924;2023-02-01T06:28:46;12.63;;;7.00;;
37855;SDS011;23694;43.274;26.924;2023-02-01T06:31:12;10.77;;;6.70;;
37855;SDS011;23694;43.274;26.924;2023-02-01T06:33:38;16.37;;;8.03;;
37855;SDS011;23694;43.274;26.924;2023-02-01T06:36:06;9.83;;;5.97;;
37855;SDS011;23694;43.274;26.924;2023-02-01T06:38:33;10.37;;;6.50;;
37855;SDS011;23694;43.274;26.924;2023-02-01T06:41:02;9.83;;;5.37;;
37855;SDS011;23694;43.274;26.924;2023-02-01T06:43:29;7.53;;;5.40;;
37855;SDS011;23694;43.274;26.924;2023-02-01T06:46:02;8.60;;;5.37;;
37855;SDS011;23694;43.274;26.924;2023-02-01T06:48:30;9.60;;;5.33;;
37855;SDS011;23694;43.274;26.924;2023-02-01T06:50:57;7.83;;;5.30;;
37855;SDS011;23694;43.274;26.924;2023-02-01T06:53:23;7.83;;;5.00;;
37855;SDS011;23694;43.274;26.924;2023-02-01T06:55:56;8.20;;;4.47;;
37855;SDS011;23694;43.274;26.924;2023-02-01T06:58:30;8.73;;;4.73;;
37855;SDS011;23694;43.274;26.924;2023-02-01T07:00:58;7.83;;;4.47;;
37855;SDS011;23694;43.274;26.924;2023-02-01T07:03:29;8.55;;;4.90;;
37855;SDS011;23694;43.274;26.924;2023-02-01T07:05:56;7.13;;;4.90;;
37855;SDS011;23694;43.274;26.924;2023-02-01T07:08:24;7.93;;;4.90;;
37855;SDS011;23694;43.274;26.924;2023-02-01T07:10:53;6.37;;;4.97;;
37855;SDS011;23694;43.274;26.924;2023-02-01T07:13:19;9.20;;;5.97;;
37855;SDS011;23694;43.274;26.924;2023-02-01T07:15:45;9.77;;;6.10;;
37855;SDS011;23694;43.274;26.924;2023-02-01T07:18:14;8.77;;;6.03;;
37855;SDS011;23694;43.274;26.924;2023-02-01T07:20:41;8.53;;;6.27;;
37855;SDS011;23694;43.274;26.924;2023-02-01T07:23:10;10.13;;;6.47;;
37855;SDS011;23694;43.274;26.924;2023-02-01T07:25:37;8.93;;;6.20;;
37855;SDS011;23694;43.274;26.924;2023-02-01T07:28:03;11.37;;;6.50;;
37855;SDS011;23694;43.274;26.924;2023-02-01T07:30:29;10.10;;;7.30;;
37855;SDS011;23694;43.274;26.924;2023-02-01T07:32:55;13.17;;;7.47;;
37855;SDS011;23694;43.274;26.924;2023-02-01T07:35:24;13.03;;;7.47;;
37855;SDS011;23694;43.274;26.924;2023-02-01T07:37:50;10.30;;;6.60;;
37855;SDS011;23694;43.274;26.924;2023-02-01T07:40:17;10.67;;;7.23;;
37855;SDS011;23694;43.274;26.924;2023-02-01T07:42:43;14.97;;;7.57;;
37855;SDS011;23694;43.274;26.924;2023-02-01T07:45:09;16.43;;;8.30;;
37855;SDS011;23694;43.274;26.924;2023-02-01T07:47:36;15.43;;;9.93;;
37855;SDS011;23694;43.274;26.924;2023-02-01T07:50:02;15.60;;;10.27;;
37855;SDS011;23694;43.274;26.924;2023-02-01T07:52:28;14.07;;;8.03;;
37855;SDS011;23694;43.274;26.924;2023-02-01T07:54:55;11.77;;;7.47;;
37855;SDS011;23694;43.274;26.924;2023-02-01T07:57:21;13.03;;;7.90;;
37855;SDS011;23694;43.274;26.924;2023-02-01T07:59:47;13.23;;;7.93;;
37855;SDS011;23694;43.274;26.924;2023-02-01T08:02:31;13.63;;;9.03;;
37855;SDS011;23694;43.274;26.924;2023-02-01T08:04:57;15.23;;;9.17;;
37855;SDS011;23694;43.274;26.924;2023-02-01T08:07:23;15.67;;;9.77;;
37855;SDS011;23694;43.274;26.924;2023-02-01T08:09:49;12.97;;;8.80;;
37855;SDS011;23694;43.274;26.924;2023-02-01T08:12:15;13.23;;;8.70;;
37855;SDS011;23694;43.274;26.924;2023-02-01T08:14:41;15.33;;;7.43;;
37855;SDS011;23694;43.274;26.924;2023-02-01T08:17:07;15.50;;;8.17;;
37855;SDS011;23694;43.274;26.924;2023-02-01T08:19:33;14.83;;;8.17;;
37855;SDS011;23694;43.274;26.924;2023-02-01T08:21:59;15.23;;;7.97;;
37855;SDS011;23694;43.274;26.924;2023-02-01T08:24:27;13.90;;;7.87;;
37855;SDS011;23694;43.274;26.924;2023-02-01T08:26:53;16.07;;;9.07;;
37855;SDS011;23694;43.274;26.924;2023-02-01T08:29:19;14.53;;;8.30;;
37855;SDS011;23694;43.274;26.924;2023-02-01T08:31:45;14.73;;;10.03;;
37855;SDS011;23694;43.274;26.924;2023-02-01T08:34:11;13.93;;;7.67;;
37855;SDS011;23694;43.274;26.924;2023-02-01T08:36:37;15.50;;;8.97;;
37855;SDS011;23694;43.274;26.924;2023-02-01T08:39:03;16.63;;;10.27;;
37855;SDS011;23694;43.274;26.924;2023-02-01T08:41:34;17.83;;;10.80;;
37855;SDS011;23694;43.274;26.924;2023-02-01T08:44:00;15.63;;;9.13;;
37855;SDS011;23694;43.274;26.924;2023-02-01T08:46:26;17.07;;;9.20;;
37855;SDS011;23694;43.274;26.924;2023-02-01T08:48:53;14.77;;;8.23;;
37855;SDS011;23694;43.274;26.924;2023-02-01T08:51:19;18.13;;;9.93;;
37855;SDS011;23694;43.274;26.924;2023-02-01T08:53:47;21.57;;;12.40;;
37855;SDS011;23694;43.274;26.924;2023-02-01T08:56:14;15.43;;;10.30;;
37855;SDS011;23694;43.274;26.924;2023-02-01T08:58:41;13.07;;;8.87;;
37855;SDS011;23694;43.274;26.924;2023-02-01T09:01:09;26.67;;;17.40;;
37855;SDS011;23694;43.274;26.924;2023-02-01T09:03:38;14.53;;;8.57;;
37855;SDS011;23694;43.274;26.924;2023-02-01T09:06:04;12.07;;;7.90;;
37855;SDS011;23694;43.274;26.924;2023-02-01T09:08:33;13.70;;;8.53;;
37855;SDS011;23694;43.274;26.924;2023-02-01T09:11:00;13.33;;;8.43;;
37855;SDS011;23694;43.274;26.924;2023-02-01T09:13:28;11.17;;;7.57;;
37855;SDS011;23694;43.274;26.924;2023-02-01T09:15:54;13.90;;;8.27;;
37855;SDS011;23694;43.274;26.924;2023-02-01T09:18:20;12.97;;;7.13;;
37855;SDS011;23694;43.274;26.924;2023-02-01T09:20:46;14.57;;;7.00;;
37855;SDS011;23694;43.274;26.924;2023-02-01T09:23:12;10.30;;;6.07;;
37855;SDS011;23694;43.274;26.924;2023-02-01T09:25:38;13.37;;;7.40;;
37855;SDS011;23694;43.274;26.924;2023-02-01T09:28:05;16.53;;;10.17;;
37855;SDS011;23694;43.274;26.924;2023-02-01T09:30:35;13.33;;;7.33;;
37855;SDS011;23694;43.274;26.924;2023-02-01T09:33:02;20.27;;;9.53;;
37855;SDS011;23694;43.274;26.924;2023-02-01T09:35:29;16.73;;;10.80;;
37855;SDS011;23694;43.274;26.924;2023-02-01T09:37:55;12.33;;;8.03;;
37855;SDS011;23694;43.274;26.924;2023-02-01T09:40:21;8.93;;;5.80;;
37855;SDS011;23694;43.274;26.924;2023-02-01T09:43:04;11.10;;;6.87;;
37855;SDS011;23694;43.274;26.924;2023-02-01T09:48:15;9.90;;;5.90;;
37855;SDS011;23694;43.274;26.924;2023-02-01T09:50:48;10.00;;;5.40;;
37855;SDS011;23694;43.274;26.924;2023-02-01T09:55:49;7.70;;;4.60;;
37855;SDS011;23694;43.274;26.924;2023-02-01T09:58:19;7.13;;;4.97;;
37855;SDS011;23694;43.274;26.924;2023-02-01T10:00:53;11.93;;;8.70;;
37855;SDS011;23694;43.274;26.924;2023-02-01T10:03:44;12.67;;;6.50;;
37855;SDS011;23694;43.274;26.924;2023-02-01T10:15:02;9.03;;;5.47;;
37855;SDS011;23694;43.274;26.924;2023-02-01T10:22:42;7.72;;;5.18;;
37855;SDS011;23694;43.274;26.924;2023-02-01T10:25:23;10.03;;;6.40;;
37855;SDS011;23694;43.274;26.924;2023-02-01T10:28:07;9.97;;;6.17;;
37855;SDS011;23694;43.274;26.924;2023-02-01T10:30:45;8.33;;;5.03;;
37855;SDS011;23694;43.274;26.924;2023-02-01T10:35:46;9.97;;;4.90;;
37855;SDS011;23694;43.274;26.924;2023-02-01T10:38:26;9.80;;;6.57;;
37855;SDS011;23694;43.274;26.924;2023-02-01T10:40:55;9.27;;;6.57;;
37855;SDS011;23694;43.274;26.924;2023-02-01T10:43:24;7.93;;;4.63;;
37855;SDS011;23694;43.274;26.924;2023-02-01T10:45:51;17.50;;;10.97;;
37855;SDS011;23694;43.274;26.924;2023-02-01T10:48:17;5.60;;;3.73;;
37855;SDS011;23694;43.274;26.924;2023-02-01T10:50:49;6.37;;;4.67;;
37855;SDS011;23694;43.274;26.924;2023-02-01T10:55:53;10.48;;;5.18;;
37855;SDS011;23694;43.274;26.924;2023-02-01T10:58:25;8.20;;;5.73;;
37855;SDS011;23694;43.274;26.924;2023-02-01T11:01:06;7.23;;;4.40;;
37855;SDS011;23694;43.274;26.924;2023-02-01T11:03:38;12.50;;;4.57;;
37855;SDS011;23694;43.274;26.924;2023-02-01T11:06:33;14.23;;;6.43;;
37855;SDS011;23694;43.274;26.924;2023-02-01T11:16:56;18.70;;;8.03;;
37855;SDS011;23694;43.274;26.924;2023-02-01T11:19:25;9.77;;;6.10;;
37855;SDS011;23694;43.274;26.924;2023-02-01T11:21:55;10.87;;;7.00;;
37855;SDS011;23694;43.274;26.924;2023-02-01T11:24:26;9.50;;;5.80;;
37855;SDS011;23694;43.274;26.924;2023-02-01T11:26:59;13.73;;;6.50;;
37855;SDS011;23694;43.274;26.924;2023-02-01T11:29:37;16.00;;;7.20;;
37855;SDS011;23694;43.274;26.924;2023-02-01T11:32:06;11.10;;;5.73;;
37855;SDS011;23694;43.274;26.924;2023-02-01T11:34:38;7.23;;;4.60;;
37855;SDS011;23694;43.274;26.924;2023-02-01T11:37:24;9.90;;;5.27;;
37855;SDS011;23694;43.274;26.924;2023-02-01T11:40:02;7.67;;;4.77;;
37855;SDS011;23694;43.274;26.924;2023-02-01T11:42:37;6.73;;;4.57;;
37855;SDS011;23694;43.274;26.924;2023-02-01T11:45:32;10.85;;;5.40;;
37855;SDS011;23694;43.274;26.924;2023-02-01T11:48:00;9.43;;;4.93;;
37855;SDS011;23694;43.274;26.924;2023-02-01T11:50:32;9.70;;;4.57;;
37855;SDS011;23694;43.274;26.924;2023-02-01T11:53:16;5.37;;;3.50;;
37855;SDS011;23694;43.274;26.924;2023-02-01T11:55:58;4.63;;;3.67;;
37855;SDS011;23694;43.274;26.924;2023-02-01T11:58:55;11.97;;;8.30;;
37855;SDS011;23694;43.274;26.924;2023-02-01T12:09:47;5.97;;;3.50;;
37855;SDS011;23694;43.274;26.924;2023-02-01T12:15:08;6.13;;;3.50;;
37855;SDS011;23694;43.274;26.924;2023-02-01T12:17:54;9.10;;;5.03;;
37855;SDS011;23694;43.274;26.924;2023-02-01T12:39:49;8.63;;;3.80;;
37855;SDS011;23694;43.274;26.924;2023-02-01T12:50:01;9.10;;;4.17;;
37855;SDS011;23694;43.274;26.924;2023-02-01T12:52:39;10.07;;;7.25;;
37855;SDS011;23694;43.274;26.924;2023-02-01T12:55:21;11.07;;;8.47;;
37855;SDS011;23694;43.274;26.924;2023-02-01T12:58:01;8.87;;;3.73;;
37855;SDS011;23694;43.274;26.924;2023-02-01T13:00:40;11.70;;;7.33;;
37855;SDS011;23694;43.274;26.924;2023-02-01T13:03:14;12.57;;;7.43;;
37855;SDS011;23694;43.274;26.924;2023-02-01T13:11:26;8.03;;;4.60;;
37855;SDS011;23694;43.274;26.924;2023-02-01T13:16:43;8.37;;;5.53;;
37855;SDS011;23694;43.274;26.924;2023-02-01T13:22:37;10.23;;;6.37;;
37855;SDS011;23694;43.274;26.924;2023-02-01T13:25:00;9.20;;;5.53;;
37855;SDS011;23694;43.274;26.924;2023-02-01T13:27:29;16.77;;;8.10;;
37855;SDS011;23694;43.274;26.924;2023-02-01T13:29:58;17.20;;;9.17;;
37855;SDS011;23694;43.274;26.924;2023-02-01T13:43:29;8.43;;;4.77;;
37855;SDS011;23694;43.274;26.924;2023-02-01T13:45:57;45.63;;;21.63;;
37855;SDS011;23694;43.274;26.924;2023-02-01T13:48:41;13.60;;;7.20;;
37855;SDS011;23694;43.274;26.924;2023-02-01T13:51:32;22.57;;;9.47;;
37855;SDS011;23694;43.274;26.924;2023-02-01T13:56:49;15.30;;;8.07;;
37855;SDS011;23694;43.274;26.924;2023-02-01T14:10:49;17.17;;;8.75;;
37855;SDS011;23694;43.274;26.924;2023-02-01T14:13:38;16.60;;;11.03;;
37855;SDS011;23694;43.274;26.924;2023-02-01T14:24:15;10.43;;;6.72;;
37855;SDS011;23694;43.274;26.924;2023-02-01T14:26:51;13.57;;;7.33;;
37855;SDS011;23694;43.274;26.924;2023-02-01T14:42:26;18.30;;;11.97;;
37855;SDS011;23694;43.274;26.924;2023-02-01T14:47:45;22.93;;;13.50;;
37855;SDS011;23694;43.274;26.924;2023-02-01T15:00:54;17.33;;;10.53;;
37855;SDS011;23694;43.274;26.924;2023-02-01T15:03:25;22.60;;;11.93;;
37855;SDS011;23694;43.274;26.924;2023-02-01T15:06:46;26.57;;;13.90;;
37855;SDS011;23694;43.274;26.924;2023-02-01T15:09:14;83.30;;;42.03;;
37855;SDS011;23694;43.274;26.924;2023-02-01T15:12:14;44.87;;;24.47;;
37855;SDS011;23694;43.274;26.924;2023-02-01T15:14:37;90.30;;;50.55;;
37855;SDS011;23694;43.274;26.924;2023-02-01T15:17:19;65.20;;;34.37;;
37855;SDS011;23694;43.274;26.924;2023-02-01T15:19:55;69.93;;;33.77;;
37855;SDS011;23694;43.274;26.924;2023-02-01T15:22:24;45.13;;;25.63;;
37855;SDS011;23694;43.274;26.924;2023-02-01T15:24:58;69.33;;;38.27;;
37855;SDS011;23694;43.274;26.924;2023-02-01T15:27:26;60.33;;;35.63;;
37855;SDS011;23694;43.274;26.924;2023-02-01T15:30:04;70.47;;;39.80;;
37855;SDS011;23694;43.274;26.924;2023-02-01T15:32:33;60.27;;;35.87;;
37855;SDS011;23694;43.274;26.924;2023-02-01T15:35:04;58.03;;;34.10;;
37855;SDS011;23694;43.274;26.924;2023-02-01T15:37:31;51.50;;;32.43;;
37855;SDS011;23694;43.274;26.924;2023-02-01T15:42:52;62.10;;;36.80;;
37855;SDS011;23694;43.274;26.924;2023-02-01T15:45:27;51.60;;;28.73;;
37855;SDS011;23694;43.274;26.924;2023-02-01T15:47:56;54.42;;;33.97;;
37855;SDS011;23694;43.274;26.924;2023-02-01T15:50:23;43.67;;;26.47;;
37855;SDS011;23694;43.274;26.924;2023-02-01T15:52:51;39.13;;;23.43;;
37855;SDS011;23694;43.274;26.924;2023-02-01T15:55:22;46.43;;;23.50;;
37855;SDS011;23694;43.274;26.924;2023-02-01T15:57:58;150.03;;;74.83;;
37855;SDS011;23694;43.274;26.924;2023-02-01T16:00:29;45.97;;;24.17;;
37855;SDS011;23694;43.274;26.924;2023-02-01T16:02:59;49.47;;;23.43;;
37855;SDS011;23694;43.274;26.924;2023-02-01T16:05:35;190.60;;;88.63;;
37855;SDS011;23694;43.274;26.924;2023-02-01T16:10:39;32.53;;;21.43;;
37855;SDS011;23694;43.274;26.924;2023-02-01T16:13:07;36.17;;;20.83;;
37855;SDS011;23694;43.274;26.924;2023-02-01T16:15:34;35.77;;;20.17;;
37855;SDS011;23694;43.274;26.924;2023-02-01T16:18:00;26.37;;;15.87;;
37855;SDS011;23694;43.274;26.924;2023-02-01T16:20:26;22.83;;;13.83;;
37855;SDS011;23694;43.274;26.924;2023-02-01T16:22:52;25.87;;;14.30;;
37855;SDS011;23694;43.274;26.924;2023-02-01T16:25:18;16.97;;;10.00;;
37855;SDS011;23694;43.274;26.924;2023-02-01T16:27:44;14.37;;;8.17;;
37855;SDS011;23694;43.274;26.924;2023-02-01T16:30:10;14.37;;;9.50;;
37855;SDS011;23694;43.274;26.924;2023-02-01T16:32:37;19.60;;;10.77;;
37855;SDS011;23694;43.274;26.924;2023-02-01T16:35:13;16.93;;;10.40;;
37855;SDS011;23694;43.274;26.924;2023-02-01T16:37:45;16.77;;;9.95;;
37855;SDS011;23694;43.274;26.924;2023-02-01T16:40:15;16.00;;;9.70;;
37855;SDS011;23694;43.274;26.924;2023-02-01T16:42:42;21.93;;;11.40;;
37855;SDS011;23694;43.274;26.924;2023-02-01T16:45:08;38.17;;;18.17;;
37855;SDS011;23694;43.274;26.924;2023-02-01T16:47:36;41.53;;;20.70;;
37855;SDS011;23694;43.274;26.924;2023-02-01T16:50:05;26.60;;;15.27;;
37855;SDS011;23694;43.274;26.924;2023-02-01T16:52:42;33.27;;;16.97;;
37855;SDS011;23694;43.274;26.924;2023-02-01T16:55:11;34.97;;;17.03;;
37855;SDS011;23694;43.274;26.924;2023-02-01T16:57:39;21.57;;;9.73;;
37855;SDS011;23694;43.274;26.924;2023-02-01T17:00:06;13.90;;;10.10;;
37855;SDS011;23694;43.274;26.924;2023-02-01T17:02:34;17.53;;;9.93;;
37855;SDS011;23694;43.274;26.924;2023-02-01T17:05:00;18.30;;;7.70;;
37855;SDS011;23694;43.274;26.924;2023-02-01T17:07:26;11.97;;;7.50;;
37855;SDS011;23694;43.274;26.924;2023-02-01T17:09:52;16.60;;;9.37;;
37855;SDS011;23694;43.274;26.924;2023-02-01T17:12:25;18.13;;;9.77;;
37855;SDS011;23694;43.274;26.924;2023-02-01T17:14:55;18.23;;;10.13;;
37855;SDS011;23694;43.274;26.924;2023-02-01T17:17:23;15.67;;;8.73;;
37855;SDS011;23694;43.274;26.924;2023-02-01T17:19:51;20.63;;;10.63;;
37855;SDS011;23694;43.274;26.924;2023-02-01T17:22:19;15.20;;;9.07;;
37855;SDS011;23694;43.274;26.924;2023-02-01T17:24:45;23.93;;;13.13;;
37855;SDS011;23694;43.274;26.924;2023-02-01T17:27:12;18.57;;;10.07;;
37855;SDS011;23694;43.274;26.924;2023-02-01T17:29:38;18.33;;;9.80;;
37855;SDS011;23694;43.274;26.924;2023-02-01T17:32:05;20.37;;;10.30;;
37855;SDS011;23694;43.274;26.924;2023-02-01T17:34:49;29.40;;;15.37;;
37855;SDS011;23694;43.274;26.924;2023-02-01T17:37:21;18.93;;;11.47;;
37855;SDS011;23694;43.274;26.924;2023-02-01T17:39:50;20.03;;;10.97;;
37855;SDS011;23694;43.274;26.924;2023-02-01T17:42:19;13.77;;;8.90;;